createdAt,value
2018-09-05T00:02:18.339Z,5.30
2018-09-05T00:05:22.612Z,7.23
2018-09-05T00:08:26.813Z,6.30
2018-09-05T00:11:31.278Z,6.07
2018-09-05T00:14:36.275Z,7.10
2018-09-05T00:17:40.500Z,6.10
2018-09-05T00:20:44.812Z,6.40
2018-09-05T00:23:49.282Z,6.10
2018-09-05T00:26:53.474Z,6.00
2018-09-05T00:29:59.623Z,5.30
2018-09-05T00:33:07.394Z,5.60
2018-09-05T00:36:13.530Z,6.03
2018-09-05T00:39:17.976Z,5.50
2018-09-05T00:42:22.364Z,6.07
2018-09-05T00:45:27.069Z,5.43
2018-09-05T00:48:31.398Z,5.63
2018-09-05T00:51:35.761Z,6.20
2018-09-05T00:54:39.941Z,5.23
2018-09-05T00:57:44.177Z,6.03
2018-09-05T01:00:48.382Z,5.03
2018-09-05T01:03:52.700Z,5.53
2018-09-05T01:06:56.878Z,5.43
2018-09-05T01:10:01.297Z,4.83
2018-09-05T01:13:05.611Z,5.27
2018-09-05T01:16:09.806Z,5.73
2018-09-05T01:19:14.109Z,5.80
2018-09-05T01:22:18.432Z,5.60
2018-09-05T01:25:22.753Z,6.00
2018-09-05T01:28:27.078Z,6.13
2018-09-05T01:31:31.475Z,7.03
2018-09-05T01:34:35.867Z,5.83
2018-09-05T01:37:40.034Z,6.20
2018-09-05T01:40:44.327Z,5.93
2018-09-05T01:43:48.515Z,6.50
2018-09-05T01:46:52.986Z,6.50
2018-09-05T01:49:57.318Z,6.57
2018-09-05T01:53:01.598Z,6.60
2018-09-05T01:56:05.860Z,6.80
2018-09-05T01:59:10.125Z,6.60
2018-09-05T02:02:14.798Z,6.17
2018-09-05T02:05:18.932Z,6.20
2018-09-05T02:08:23.100Z,7.03
2018-09-05T02:11:27.449Z,6.20
2018-09-05T02:14:31.688Z,6.83
2018-09-05T02:17:36.042Z,6.97
2018-09-05T02:20:40.537Z,7.97
2018-09-05T02:23:44.711Z,6.30
2018-09-05T02:26:49.035Z,7.50
2018-09-05T02:29:53.423Z,6.90
2018-09-05T02:32:57.828Z,6.80
2018-09-05T02:36:01.929Z,5.77
2018-09-05T02:39:08.883Z,6.50
2018-09-05T02:42:13.206Z,5.87
2018-09-05T02:45:17.562Z,6.27
2018-09-05T02:48:21.889Z,6.30
2018-09-05T02:51:26.104Z,7.13
2018-09-05T02:54:30.348Z,6.27
2018-09-05T02:57:34.395Z,7.00
2018-09-05T03:00:38.517Z,6.53
2018-09-05T03:03:42.635Z,6.00
2018-09-05T03:06:46.835Z,5.30
2018-09-05T03:09:51.139Z,5.60
2018-09-05T03:12:55.357Z,5.30
2018-09-05T03:15:59.718Z,5.30
2018-09-05T03:19:04.335Z,5.53
2018-09-05T03:22:08.393Z,5.90
2018-09-05T03:25:12.869Z,5.42
2018-09-05T03:28:17.235Z,5.30
2018-09-05T03:31:21.570Z,5.70
2018-09-05T03:34:26.139Z,5.37
2018-09-05T03:37:30.492Z,6.33
2018-09-05T03:40:34.757Z,6.33
2018-09-05T03:43:38.919Z,5.53
2018-09-05T03:46:43.321Z,5.80
2018-09-05T03:49:47.680Z,5.57
2018-09-05T03:52:51.985Z,5.30
2018-09-05T03:55:56.691Z,5.40
2018-09-05T03:59:00.910Z,5.80
2018-09-05T04:02:05.195Z,5.90
2018-09-05T04:05:09.487Z,5.57
2018-09-05T04:08:13.861Z,6.27
2018-09-05T04:11:18.192Z,5.87
2018-09-05T04:14:22.489Z,5.60
2018-09-05T04:17:27.754Z,4.70
2018-09-05T04:20:32.324Z,5.70
2018-09-05T04:23:41.569Z,6.37
2018-09-05T04:26:45.775Z,6.00
2018-09-05T04:29:50.316Z,6.30
2018-09-05T04:32:54.633Z,5.87
2018-09-05T04:35:58.975Z,5.67
2018-09-05T04:39:03.368Z,7.17
2018-09-05T04:42:07.478Z,7.23
2018-09-05T04:45:11.647Z,5.80
2018-09-05T04:48:15.965Z,6.67
2018-09-05T04:51:20.150Z,6.53
2018-09-05T04:54:24.464Z,6.27
2018-09-05T04:57:28.843Z,6.57
2018-09-05T05:00:33.111Z,6.17
2018-09-05T05:03:37.417Z,6.97
2018-09-05T05:06:41.750Z,7.90
2018-09-05T05:09:46.000Z,6.40
2018-09-05T05:12:50.376Z,6.30
2018-09-05T05:15:54.622Z,6.73
2018-09-05T05:18:58.962Z,8.40
2018-09-05T05:22:03.319Z,7.93
2018-09-05T05:25:07.744Z,7.10
2018-09-05T05:28:12.041Z,7.47
2018-09-05T05:31:16.452Z,8.03
2018-09-05T05:34:20.985Z,7.80
2018-09-05T05:37:25.310Z,8.70
2018-09-05T05:40:30.075Z,8.07
2018-09-05T05:43:34.384Z,9.00
2018-09-05T05:46:38.809Z,8.73
2018-09-05T05:49:43.107Z,9.17
2018-09-05T05:52:47.580Z,7.77
2018-09-05T05:55:51.849Z,7.37
2018-09-05T05:58:56.205Z,8.37
2018-09-05T06:02:00.660Z,8.13
2018-09-05T06:05:05.083Z,8.63
2018-09-05T06:08:09.365Z,8.50
2018-09-05T06:11:13.712Z,7.50
2018-09-05T06:14:17.782Z,7.60
2018-09-05T06:17:22.064Z,8.00
2018-09-05T06:20:26.271Z,7.50
2018-09-05T06:23:30.533Z,8.73
2018-09-05T06:26:34.913Z,8.70
2018-09-05T06:29:39.205Z,8.43
2018-09-05T06:32:43.518Z,8.80
2018-09-05T06:35:48.356Z,8.83
2018-09-05T06:38:52.803Z,7.80
2018-09-05T06:42:03.326Z,8.70
2018-09-05T06:45:07.714Z,9.30
2018-09-05T06:48:12.031Z,8.03
2018-09-05T06:51:16.645Z,7.90
2018-09-05T06:54:21.090Z,9.90
2018-09-05T06:57:25.584Z,7.77
2018-09-05T07:00:30.022Z,8.27
2018-09-05T07:03:34.274Z,8.57
2018-09-05T07:06:38.686Z,9.33
2018-09-05T07:09:43.190Z,9.23
2018-09-05T07:12:47.539Z,8.70
2018-09-05T07:15:51.822Z,9.27
2018-09-05T07:18:56.113Z,9.80
2018-09-05T07:22:00.554Z,8.40
2018-09-05T07:25:04.999Z,9.83
2018-09-05T07:28:09.280Z,9.90
2018-09-05T07:31:14.174Z,8.80
2018-09-05T07:34:18.643Z,7.83
2018-09-05T07:37:23.103Z,9.80
2018-09-05T07:40:27.271Z,8.97
2018-09-05T07:43:31.418Z,9.50
2018-09-05T07:46:35.573Z,10.63
2018-09-05T07:49:39.994Z,9.90
2018-09-05T07:52:44.327Z,9.47
2018-09-05T07:55:48.406Z,9.40
2018-09-05T07:58:52.769Z,10.33
2018-09-05T08:01:57.060Z,10.43
2018-09-05T08:05:01.333Z,9.40
2018-09-05T08:08:05.928Z,9.77
2018-09-05T08:11:10.322Z,9.23
2018-09-05T08:14:14.661Z,9.30
2018-09-05T08:17:19.142Z,10.00
2018-09-05T08:20:23.622Z,10.80
2018-09-05T08:23:28.491Z,10.78
2018-09-05T08:26:32.990Z,9.78
2018-09-05T08:29:37.411Z,10.60
2018-09-05T08:32:41.609Z,10.55
2018-09-05T08:35:46.262Z,9.48
2018-09-05T08:38:50.734Z,9.75
2018-09-05T08:41:55.039Z,11.03
2018-09-05T08:44:59.233Z,10.93
2018-09-05T08:48:03.589Z,9.75
2018-09-05T08:51:07.903Z,10.23
2018-09-05T08:54:12.051Z,9.50
2018-09-05T08:57:16.408Z,10.05
2018-09-05T09:00:20.982Z,9.40
2018-09-05T09:03:25.265Z,9.13
2018-09-05T09:06:29.470Z,9.28
2018-09-05T09:09:33.671Z,8.90
2018-09-05T09:12:38.874Z,9.38
2018-09-05T09:15:47.822Z,8.65
2018-09-05T09:18:52.412Z,9.68
2018-09-05T09:21:56.622Z,9.03
2018-09-05T09:25:00.869Z,8.58
2018-09-05T09:28:05.373Z,9.33
2018-09-05T09:31:09.803Z,8.55
2018-09-05T09:34:14.144Z,8.63
2018-09-05T09:37:18.463Z,8.98
2018-09-05T09:40:22.823Z,9.18
2018-09-05T09:43:27.475Z,9.60
2018-09-05T09:46:31.807Z,9.23
2018-09-05T09:49:35.962Z,9.45
2018-09-05T09:52:40.128Z,9.28
2018-09-05T09:55:44.475Z,8.73
2018-09-05T09:58:48.768Z,9.33
2018-09-05T10:01:58.165Z,8.58
2018-09-05T10:05:07.301Z,8.60
2018-09-05T10:08:16.806Z,9.93
2018-09-05T10:11:25.296Z,8.95
2018-09-05T10:14:32.854Z,8.88
2018-09-05T10:17:37.805Z,9.10
2018-09-05T10:20:41.989Z,9.05
2018-09-05T10:23:46.408Z,9.50
2018-09-05T10:27:18.568Z,9.73
2018-09-05T10:30:22.886Z,9.07
2018-09-05T10:33:27.042Z,9.53
2018-09-05T10:36:31.949Z,9.83
2018-09-05T10:39:36.303Z,10.00
2018-09-05T10:42:40.624Z,8.23
2018-09-05T10:45:44.760Z,9.63
2018-09-05T10:48:49.040Z,9.13
2018-09-05T10:51:56.312Z,10.10
2018-09-05T10:55:01.041Z,8.80
2018-09-05T10:58:05.778Z,8.90
2018-09-05T11:01:09.981Z,8.97
2018-09-05T11:04:14.819Z,9.90
2018-09-05T11:07:19.043Z,9.30
2018-09-05T11:10:23.447Z,9.33
2018-09-05T11:13:27.793Z,9.17
2018-09-05T11:16:32.187Z,9.50
2018-09-05T11:19:36.440Z,9.23
2018-09-05T11:22:41.135Z,9.03
2018-09-05T11:25:45.482Z,9.43
2018-09-05T11:28:49.862Z,8.77
2018-09-05T11:31:54.447Z,9.10
2018-09-05T11:34:58.710Z,8.33
2018-09-05T11:38:02.599Z,8.57
2018-09-05T11:41:06.756Z,9.13
2018-09-05T11:44:10.819Z,9.93
2018-09-05T11:47:14.934Z,9.17
2018-09-05T11:50:18.881Z,9.40
2018-09-05T11:53:22.751Z,9.90
2018-09-05T11:56:26.695Z,9.27
2018-09-05T11:59:30.642Z,9.80
2018-09-05T12:02:34.705Z,9.30
2018-09-05T12:05:38.635Z,9.77
2018-09-05T12:08:42.742Z,9.23
2018-09-05T12:11:46.772Z,8.30
2018-09-05T12:14:50.663Z,9.77
2018-09-05T12:17:54.554Z,9.80
2018-09-05T12:20:58.727Z,9.80
2018-09-05T12:24:02.670Z,9.67
2018-09-05T12:27:06.553Z,9.03
2018-09-05T12:30:10.511Z,9.60
2018-09-05T12:33:14.441Z,9.57
2018-09-05T12:36:18.353Z,9.20
2018-09-05T12:39:22.475Z,9.03
2018-09-05T12:42:26.475Z,8.80
2018-09-05T12:45:30.409Z,9.13
2018-09-05T12:48:34.346Z,10.73
2018-09-05T12:51:38.296Z,9.70
2018-09-05T12:54:42.390Z,9.63
2018-09-05T12:57:46.486Z,10.67
2018-09-05T13:00:50.682Z,9.60
2018-09-05T13:03:54.619Z,8.60
2018-09-05T13:06:58.586Z,9.37
2018-09-05T13:10:02.437Z,8.77
2018-09-05T13:13:06.565Z,10.07
2018-09-05T13:16:10.485Z,9.50
2018-09-05T13:19:14.567Z,9.10
2018-09-05T13:22:18.548Z,10.30
2018-09-05T13:25:22.470Z,9.93
2018-09-05T13:28:26.514Z,9.07
2018-09-05T13:31:30.413Z,9.20
2018-09-05T13:34:34.335Z,9.00
2018-09-05T13:37:38.492Z,9.10
2018-09-05T13:40:42.395Z,9.33
2018-09-05T13:43:46.456Z,10.10
2018-09-05T13:46:50.367Z,8.83
2018-09-05T13:49:54.314Z,9.53
2018-09-05T13:52:58.216Z,9.53
2018-09-05T13:56:02.355Z,9.53
2018-09-05T13:59:06.372Z,10.10
2018-09-05T14:02:10.266Z,9.20
2018-09-05T14:05:14.597Z,9.30
2018-09-05T14:08:18.462Z,9.80
2018-09-05T14:11:22.356Z,9.37
2018-09-05T14:14:26.660Z,9.60
2018-09-05T14:17:30.998Z,9.10
2018-09-05T14:20:35.328Z,9.73
2018-09-05T14:23:39.640Z,9.67
2018-09-05T14:26:43.912Z,10.70
2018-09-05T14:29:48.939Z,9.87
2018-09-05T14:32:53.394Z,10.00
2018-09-05T14:35:57.630Z,9.23
2018-09-05T14:39:02.124Z,9.77
2018-09-05T14:42:06.286Z,10.43
2018-09-05T14:45:10.723Z,9.10
2018-09-05T14:48:15.098Z,10.37
2018-09-05T14:51:19.443Z,9.97
2018-09-05T14:54:23.904Z,10.00
2018-09-05T14:57:28.564Z,10.17
2018-09-05T15:00:32.966Z,9.20
2018-09-05T15:03:37.303Z,9.43
2018-09-05T15:06:41.585Z,9.03
2018-09-05T15:09:45.906Z,9.57
2018-09-05T15:12:50.149Z,10.50
2018-09-05T15:15:54.594Z,9.50
2018-09-05T15:18:58.870Z,10.20
2018-09-05T15:22:03.081Z,9.60
2018-09-05T15:25:07.595Z,10.50
2018-09-05T15:28:12.090Z,10.67
2018-09-05T15:31:16.495Z,10.50
2018-09-05T15:34:21.139Z,10.00
2018-09-05T15:37:25.237Z,9.70
2018-09-05T15:40:29.590Z,10.20
2018-09-05T15:43:33.732Z,10.70
2018-09-05T15:46:37.973Z,10.07
2018-09-05T15:49:42.444Z,9.90
2018-09-05T15:52:46.701Z,9.90
2018-09-05T15:55:51.087Z,9.77
2018-09-05T15:58:55.331Z,8.70
2018-09-05T16:01:59.691Z,10.53
2018-09-05T16:05:04.202Z,9.90
2018-09-05T16:08:08.945Z,8.97
2018-09-05T16:11:13.407Z,10.40
2018-09-05T16:14:17.724Z,9.70
2018-09-05T16:17:21.992Z,8.83
2018-09-05T16:20:26.241Z,10.60
2018-09-05T16:23:30.673Z,11.27
2018-09-05T16:26:34.879Z,9.70
2018-09-05T16:29:39.654Z,10.33
2018-09-05T16:32:43.937Z,10.73
2018-09-05T16:35:48.402Z,9.97
2018-09-05T16:38:52.695Z,9.40
2018-09-05T16:41:57.111Z,11.47
2018-09-05T16:45:01.590Z,9.73
2018-09-05T16:48:05.993Z,10.50
2018-09-05T16:51:10.487Z,10.93
2018-09-05T16:54:14.994Z,10.10
2018-09-05T16:57:19.518Z,10.23
2018-09-05T17:00:23.871Z,10.67
2018-09-05T17:03:27.759Z,10.77
2018-09-05T17:06:32.230Z,10.00
2018-09-05T17:09:36.400Z,10.23
2018-09-05T17:12:40.887Z,11.63
2018-09-05T17:15:45.179Z,11.00
2018-09-05T17:18:49.567Z,10.37
2018-09-05T17:21:54.025Z,10.93
2018-09-05T17:24:57.975Z,9.93
2018-09-05T17:28:01.994Z,9.80
2018-09-05T17:31:06.856Z,11.63
2018-09-05T17:34:11.404Z,9.87
2018-09-05T17:37:15.674Z,9.23
2018-09-05T17:40:19.586Z,10.30
2018-09-05T17:43:23.536Z,10.47
2018-09-05T17:46:27.999Z,10.90
2018-09-05T17:49:32.312Z,10.90
2018-09-05T17:52:36.704Z,10.90
2018-09-05T17:55:41.177Z,10.70
2018-09-05T17:58:45.142Z,10.13
2018-09-05T18:01:49.755Z,11.07
2018-09-05T18:04:54.104Z,10.63
2018-09-05T18:07:58.496Z,10.70
2018-09-05T18:11:02.502Z,10.30
2018-09-05T18:14:06.761Z,11.00
2018-09-05T18:17:11.661Z,10.43
2018-09-05T18:20:16.568Z,10.13
2018-09-05T18:23:20.971Z,10.77
2018-09-05T18:26:25.404Z,11.27
2018-09-05T18:29:29.592Z,11.40
2018-09-05T18:32:39.778Z,10.70
2018-09-05T18:35:46.653Z,11.57
2018-09-05T18:38:50.730Z,10.63
2018-09-05T18:42:00.964Z,11.13
2018-09-05T18:45:07.010Z,11.23
2018-09-05T18:48:12.618Z,11.23
2018-09-05T18:51:17.322Z,11.70
2018-09-05T18:54:22.557Z,11.70
2018-09-05T18:57:27.677Z,12.10
2018-09-05T19:00:32.894Z,10.43
2018-09-05T19:03:41.152Z,11.40
2018-09-05T19:06:45.527Z,11.73
2018-09-05T19:09:50.451Z,12.23
2018-09-05T19:12:58.120Z,10.90
2018-09-05T19:16:02.514Z,11.47
2018-09-05T19:19:07.035Z,10.70
2018-09-05T19:22:11.533Z,11.37
2018-09-05T19:25:16.246Z,12.50
2018-09-05T19:28:20.382Z,11.37
2018-09-05T19:31:24.818Z,11.47
2018-09-05T19:34:29.052Z,11.07
2018-09-05T19:37:33.422Z,12.53
2018-09-05T19:40:38.475Z,12.10
2018-09-05T19:43:42.956Z,10.80
2018-09-05T19:46:47.909Z,11.27
2018-09-05T19:49:52.116Z,11.40
2018-09-05T19:52:56.573Z,11.30
2018-09-05T19:56:00.843Z,12.20
2018-09-05T19:59:06.864Z,11.23
2018-09-05T20:02:12.699Z,12.10
2018-09-05T20:05:17.658Z,11.43
2018-09-05T20:08:21.655Z,11.13
2018-09-05T20:11:25.940Z,11.43
2018-09-05T20:14:31.039Z,12.63
2018-09-05T20:17:35.185Z,11.53
2018-09-05T20:20:39.412Z,12.43
2018-09-05T20:23:44.293Z,11.07
2018-09-05T20:26:48.402Z,12.23
2018-09-05T20:29:52.788Z,11.50
2018-09-05T20:32:57.419Z,11.73
2018-09-05T20:36:01.919Z,10.97
2018-09-05T20:39:09.091Z,11.40
2018-09-05T20:42:13.612Z,11.30
2018-09-05T20:45:18.005Z,11.83
2018-09-05T20:48:22.522Z,12.67
2018-09-05T20:51:27.022Z,10.37
2018-09-05T20:54:31.457Z,11.87
2018-09-05T20:57:35.825Z,11.53
2018-09-05T21:00:40.192Z,10.93
2018-09-05T21:03:44.753Z,12.53
2018-09-05T21:06:49.883Z,12.07
2018-09-05T21:09:54.308Z,11.63
2018-09-05T21:12:59.147Z,11.73
2018-09-05T21:16:03.745Z,11.70
2018-09-05T21:19:08.127Z,10.67
2018-09-05T21:22:12.703Z,11.27
2018-09-05T21:25:17.154Z,11.57
2018-09-05T21:28:22.808Z,12.40
2018-09-05T21:31:27.242Z,11.60
2018-09-05T21:34:31.824Z,11.50
2018-09-05T21:37:36.109Z,11.73
2018-09-05T21:40:40.784Z,11.23
2018-09-05T21:43:46.093Z,10.60
2018-09-05T21:46:50.346Z,11.23
2018-09-05T21:49:54.739Z,11.37
2018-09-05T21:52:59.072Z,11.70
2018-09-05T21:56:03.593Z,11.53
2018-09-05T21:59:07.864Z,11.30
2018-09-05T22:02:12.594Z,12.23
2018-09-05T22:05:16.628Z,12.27
2018-09-05T22:08:21.536Z,11.07
2018-09-05T22:11:27.022Z,11.87
2018-09-05T22:14:31.210Z,12.73
2018-09-05T22:17:35.351Z,11.67
2018-09-05T22:20:39.804Z,11.00
2018-09-05T22:23:44.235Z,11.40
2018-09-05T22:26:48.636Z,10.67
2018-09-05T22:29:53.009Z,11.23
2018-09-05T22:32:57.300Z,11.63
2018-09-05T22:36:01.487Z,12.77
2018-09-05T22:39:07.149Z,13.97
2018-09-05T22:42:13.217Z,12.30
2018-09-05T22:45:28.280Z,11.73
2018-09-05T22:51:55.265Z,12.80
2018-09-05T22:55:14.274Z,12.00
2018-09-05T22:58:37.578Z,11.93
2018-09-05T23:02:50.786Z,10.97
2018-09-05T23:06:16.387Z,11.33
2018-09-05T23:09:31.113Z,10.67
2018-09-05T23:12:45.901Z,11.30
2018-09-05T23:16:00.739Z,11.00
2018-09-05T23:19:44.834Z,12.83
2018-09-05T23:22:59.912Z,11.77
2018-09-05T23:26:04.274Z,11.10
2018-09-05T23:29:08.546Z,11.50
2018-09-05T23:32:12.886Z,11.07
2018-09-05T23:35:17.187Z,12.30
2018-09-05T23:38:21.532Z,12.30
2018-09-05T23:41:25.890Z,11.07
2018-09-05T23:44:30.166Z,11.83
2018-09-05T23:47:34.527Z,12.50
2018-09-05T23:50:38.819Z,11.23
2018-09-05T23:53:43.131Z,11.30
2018-09-05T23:56:47.790Z,11.00
2018-09-05T23:59:52.179Z,11.97
